Campanya Meteocatpedra
Centenari de l'SMC: 100 anys mirant el cel

Dades de l'estació automàtica els Alamús

?
?

Resum diari

22:30 TU
Dades diàries de l'estació meteorològica
Temperatura mitjana 18.1 °C
Temperatura màxima 25.4 °C 13:51 TU
Temperatura mínima 11.7 °C 2:45 TU
Humitat relativa mitjana 59%
Precipitació acumulada 0.0 mm
Ratxa màxima del vent (2 m) 26.6 km/h - 241º 14:04 TU

El tram horari està expressat en Temps Universal (TU). Cal sumar una hora en horari d'hivern i dues en horari d'estiu per passar a l'hora oficial.

els Alamús

Metadades estació meteorològica
Municipi Els Alamús
Comarca Segrià
Altitud 235 m
Data alta 22.06.2011
Estat actual Operativa
Dades de període
Període
TU
TM
°C
TX
°C
TN
°C
HRM
%
PPT
mm
VVM (2 m)
km/h
DVM (2 m)
graus
VVX (2 m)
km/h
00:00 - 00:30 14.3 14.4 13.9 79 0.0 1.1 214 4.3
00:30 - 01:00 13.3 13.9 12.8 85 0.0 0.4 215 2.5
01:00 - 01:30 12.9 13.1 12.7 88 0.0 0.4 203 2.9
01:30 - 02:00 13.1 13.3 12.9 85 0.0 0.7 214 4.3
02:00 - 02:30 12.4 12.8 11.9 88 0.0 0.4 207 2.5
02:30 - 03:00 12.0 12.3 11.7 90 0.0 1.1 210 4.0
03:00 - 03:30 12.7 13.0 12.4 86 0.0 1.8 216 5.4
03:30 - 04:00 13.0 13.3 12.7 84 0.0 2.2 229 6.8
04:00 - 04:30 13.0 13.2 12.7 84 0.0 2.9 224 8.3
04:30 - 05:00 12.8 13.1 12.5 86 0.0 1.4 225 4.3
05:00 - 05:30 12.1 12.5 12.0 90 0.0 1.1 204 4.0
05:30 - 06:00 12.8 13.3 12.1 86 0.0 2.5 212 9.0
06:00 - 06:30 13.5 13.6 13.3 82 0.0 2.5 221 8.6
06:30 - 07:00 13.7 14.8 13.3 81 0.0 2.9 222 9.0
07:00 - 07:30 15.6 16.3 14.9 74 0.0 5.4 223 14.8
07:30 - 08:00 17.0 17.7 16.3 69 0.0 7.9 237 18.4
08:00 - 08:30 17.9 18.6 17.6 65 0.0 9.0 250 18.4
08:30 - 09:00 18.2 18.7 17.7 64 0.0 7.9 255 18.4
09:00 - 09:30 19.2 19.7 18.4 61 0.0 6.1 263 15.8
09:30 - 10:00 20.0 20.8 19.2 59 0.0 5.8 252 15.1
10:00 - 10:30 21.0 21.8 20.5 55 0.0 5.4 265 17.6
10:30 - 11:00 21.8 22.3 21.2 51 0.0 7.9 253 20.5
11:00 - 11:30 22.3 23.1 21.7 49 0.0 8.6 254 18.7
11:30 - 12:00 23.4 23.8 23.1 46 0.0 7.2 267 19.1
12:00 - 12:30 24.0 24.5 23.1 44 0.0 7.2 265 20.5
12:30 - 13:00 24.3 24.8 23.7 39 0.0 7.9 270 25.2
13:00 - 13:30 24.6 24.9 24.1 35 0.0 8.3 271 25.9
13:30 - 14:00 24.9 25.4 24.5 31 0.0 8.3 275 23.8
14:00 - 14:30 24.8 25.0 24.7 28 0.0 9.7 264 26.6
14:30 - 15:00 24.6 25.0 24.4 28 0.0 9.7 258 23.4
15:00 - 15:30 24.3 24.5 24.0 29 0.0 9.0 259 19.8
15:30 - 16:00 23.9 24.1 23.5 31 0.0 8.3 270 22.7
16:00 - 16:30 23.2 23.7 22.4 34 0.0 7.2 274 18.7
16:30 - 17:00 22.5 23.0 22.0 38 0.0 7.2 268 23.0
17:00 - 17:30 21.4 22.1 21.0 39 0.0 6.5 270 20.5
17:30 - 18:00 20.4 21.0 19.9 37 0.0 6.8 267 22.0
18:00 - 18:30 19.2 19.8 18.6 41 0.0 4.7 238 13.3
18:30 - 19:00 18.3 18.6 18.1 45 0.0 4.7 234 12.6
19:00 - 19:30 18.4 18.6 18.2 46 0.0 6.5 254 16.2
19:30 - 20:00 17.9 18.1 17.6 49 0.0 4.7 222 14.4
20:00 - 20:30 17.4 17.6 17.3 50 0.0 4.3 213 15.1
20:30 - 21:00 17.4 17.5 17.2 49 0.0 6.8 240 18.4
21:00 - 21:30 16.8 17.1 16.4 54 0.0 4.3 234 11.5
21:30 - 22:00 16.4 16.5 16.3 58 0.0 5.4 223 13.3
22:00 - 22:30 16.2 16.4 16.0 58 0.0 5.4 225 13.3
22:30 - 23:00 15.7 16.0 15.5 61 0.0 3.6 210 11.5

Les dades en taronja només han passat un control de qualitat automàtic. Resta pendent la seva validació definitiva.